Time;durP1;ratioP1;P1;durP2;ratioP2;P2;SDS_P1;SDS_P2;PMS_P1;PMS_P2;Temp;Humidity;BMP_temperature;BMP_pressure;BME280_temperature;BME280_humidity;BME280_pressure;Samples;Min_cycle;Max_cycle;Signal;HPM_P1;HPM_P2
2021/11/16 00:01:59;;;;;;;3.45;2.58;;;18.70;70.70;;;;;;6215617;23;20383;-70
2021/11/16 00:04:25;;;;;;;2.67;2.10;;;18.70;70.70;;;;;;6214282;23;20099;-70
2021/11/16 00:06:52;;;;;;;3.22;2.30;;;18.70;70.70;;;;;;6215362;23;20436;-70
2021/11/16 00:09:18;;;;;;;2.30;2.10;;;18.70;70.70;;;;;;6215907;23;20000;-70
2021/11/16 00:11:44;;;;;;;2.42;2.22;;;18.70;70.80;;;;;;6164239;23;20005;-70
2021/11/16 00:14:10;;;;;;;2.50;2.30;;;18.70;70.80;;;;;;6189218;23;20011;-70
2021/11/16 00:16:37;;;;;;;3.28;2.42;;;18.70;70.80;;;;;;6215610;23;20000;-70
2021/11/16 00:19:06;;;;;;;2.40;2.15;;;18.70;70.80;;;;;;6189848;23;20092;-69
2021/11/16 00:21:32;;;;;;;2.10;1.90;;;18.60;70.80;;;;;;6190058;23;20001;-69
2021/11/16 00:23:59;;;;;;;3.55;2.28;;;18.70;70.80;;;;;;6164564;23;20341;-70
2021/11/16 00:26:25;;;;;;;2.45;2.22;;;18.70;70.80;;;;;;6189567;23;20725;-70
2021/11/16 00:28:51;;;;;;;3.30;2.35;;;18.70;70.80;;;;;;6188994;23;20001;-70
2021/11/16 00:31:17;;;;;;;2.65;2.22;;;18.70;70.80;;;;;;6215902;23;20050;-70
2021/11/16 00:33:43;;;;;;;2.55;2.30;;;18.70;70.90;;;;;;6164375;23;20008;-70
2021/11/16 00:36:09;;;;;;;2.20;2.00;;;18.70;70.90;;;;;;6215633;23;20062;-70
2021/11/16 00:38:35;;;;;;;2.55;2.20;;;18.70;70.90;;;;;;6164492;23;20080;-70
2021/11/16 00:41:01;;;;;;;2.05;1.95;;;18.70;70.90;;;;;;6215756;23;20405;-70
2021/11/16 00:43:27;;;;;;;2.90;2.40;;;18.60;70.90;;;;;;6188613;23;20081;-70
2021/11/16 00:45:52;;;;;;;2.10;2.00;;;18.70;70.90;;;;;;6189273;23;20377;-69
2021/11/16 00:48:23;;;;;;;3.35;2.28;;;18.70;71.00;;;;;;6215503;23;20318;-70
2021/11/16 00:50:52;;;;;;;3.35;2.38;;;18.60;71.00;;;;;;6166117;23;19997;-70
2021/11/16 00:53:18;;;;;;;3.30;2.30;;;18.70;71.00;;;;;;6189949;23;20004;-70
2021/11/16 00:55:44;;;;;;;4.22;2.40;;;18.70;71.00;;;;;;6189165;23;20055;-70
2021/11/16 00:58:10;;;;;;;3.13;2.53;;;18.60;71.00;;;;;;6188617;23;20008;-70
2021/11/16 01:00:35;;;;;;;3.55;2.20;;;18.60;71.00;;;;;;6188993;23;20003;-70
2021/11/16 01:03:01;;;;;;;2.50;2.30;;;18.70;71.00;;;;;;6189040;23;20157;-70
2021/11/16 01:05:26;;;;;;;2.60;2.10;;;18.70;71.00;;;;;;6215451;23;20031;-70
2021/11/16 01:07:52;;;;;;;2.55;2.35;;;18.70;71.10;;;;;;6215406;23;20350;-70
2021/11/16 01:10:19;;;;;;;3.35;2.20;;;18.70;71.00;;;;;;6189103;23;20060;-70
2021/11/16 01:12:45;;;;;;;2.33;2.13;;;18.60;71.00;;;;;;6163940;23;20455;-70
2021/11/16 01:15:11;;;;;;;2.55;2.35;;;18.70;71.10;;;;;;6189074;23;20001;-70
2021/11/16 01:17:36;;;;;;;3.95;2.63;;;18.70;71.10;;;;;;6215190;23;20001;-69
2021/11/16 01:20:04;;;;;;;3.45;2.40;;;18.70;71.10;;;;;;6189124;23;20011;-70
2021/11/16 01:22:30;;;;;;;2.47;2.28;;;18.60;71.00;;;;;;6189066;23;20423;-70
2021/11/16 01:24:55;;;;;;;2.33;2.13;;;18.60;71.00;;;;;;6215036;23;20076;-70
2021/11/16 01:27:21;;;;;;;2.85;2.20;;;18.60;71.00;;;;;;6188439;23;20047;-70
2021/11/16 01:29:48;;;;;;;2.63;2.08;;;18.60;71.00;;;;;;6215066;23;20051;-70
2021/11/16 01:32:39;;;;;;;3.22;2.55;;;18.60;71.00;;;;;;6189199;23;20000;-70
2021/11/16 01:35:00;;;;;;;5.30;2.50;;;18.60;71.00;;;;;;6214458;23;20032;-70
2021/11/16 01:37:26;;;;;;;2.50;2.20;;;18.60;71.20;;;;;;6188786;23;20050;-70
2021/11/16 01:39:52;;;;;;;2.55;2.10;;;18.60;71.10;;;;;;6188650;23;20008;-70
2021/11/16 01:42:20;;;;;;;3.70;2.40;;;18.60;71.20;;;;;;6188186;23;20007;-70
2021/11/16 01:44:47;;;;;;;3.70;2.35;;;18.60;71.10;;;;;;6188701;23;20451;-70
2021/11/16 01:47:13;;;;;;;2.78;2.40;;;18.60;71.10;;;;;;6188842;23;20059;-70
2021/11/16 01:49:39;;;;;;;3.17;2.13;;;18.60;71.10;;;;;;6188672;23;20005;-70
2021/11/16 01:52:05;;;;;;;2.83;2.20;;;18.60;71.20;;;;;;6163900;23;20000;-70
2021/11/16 01:54:31;;;;;;;2.78;2.40;;;18.60;71.10;;;;;;6163940;23;20004;-70
2021/11/16 01:56:57;;;;;;;2.58;2.38;;;18.60;71.10;;;;;;6214483;23;20451;-70
2021/11/16 01:59:22;;;;;;;2.42;2.22;;;18.60;71.20;;;;;;6163774;23;20015;-70
2021/11/16 02:01:49;;;;;;;3.28;2.30;;;18.60;71.10;;;;;;6214814;23;20003;-70
2021/11/16 02:04:15;;;;;;;2.53;2.03;;;18.60;71.20;;;;;;6163638;23;20001;-70
2021/11/16 02:06:41;;;;;;;3.08;2.17;;;18.50;71.10;;;;;;6188712;23;20448;-70
2021/11/16 02:09:11;;;;;;;2.95;2.55;;;18.60;71.20;;;;;;6188441;23;20011;-70
2021/11/16 02:11:37;;;;;;;2.35;2.15;;;18.60;71.20;;;;;;6188008;23;20005;-69
2021/11/16 02:14:05;;;;;;;2.40;2.20;;;18.50;71.10;;;;;;6138981;23;20325;-70
2021/11/16 02:16:32;;;;;;;2.03;1.90;;;18.50;71.20;;;;;;6214740;23;20056;-70
2021/11/16 02:18:59;;;;;;;3.05;2.22;;;18.60;71.20;;;;;;6214857;23;20004;-70
2021/11/16 02:21:24;;;;;;;2.33;2.15;;;18.60;71.20;;;;;;6188632;23;20502;-70
2021/11/16 02:23:50;;;;;;;3.00;2.03;;;18.60;71.30;;;;;;6214918;23;20009;-69
2021/11/16 02:26:16;;;;;;;3.30;2.40;;;18.50;71.20;;;;;;6214020;23;20016;-70
2021/11/16 02:28:44;;;;;;;3.15;2.30;;;18.50;71.20;;;;;;6162314;23;20005;-70
2021/11/16 02:31:10;;;;;;;2.42;2.22;;;18.60;71.30;;;;;;6213558;23;20024;-69
2021/11/16 02:33:36;;;;;;;2.38;2.10;;;18.60;71.30;;;;;;6213425;23;20005;-70
2021/11/16 02:36:01;;;;;;;4.78;2.40;;;18.50;71.20;;;;;;6213396;23;20344;-70
2021/11/16 02:38:27;;;;;;;2.38;2.17;;;18.50;71.20;;;;;;6213129;23;20000;-70
2021/11/16 02:40:53;;;;;;;2.38;2.17;;;18.50;71.20;;;;;;6186805;23;20000;-70
2021/11/16 02:43:19;;;;;;;3.97;2.42;;;18.50;71.20;;;;;;6213676;23;20051;-70
2021/11/16 02:45:45;;;;;;;2.80;2.15;;;18.50;71.20;;;;;;6213265;23;19997;-70
2021/11/16 02:48:13;;;;;;;2.13;1.92;;;18.50;71.30;;;;;;6187090;23;20007;-70
2021/11/16 02:50:45;;;;;;;2.42;2.22;;;18.50;71.30;;;;;;6187553;23;20024;-70
2021/11/16 02:53:11;;;;;;;2.15;1.95;;;18.50;71.30;;;;;;6187026;23;20004;-70
2021/11/16 02:55:36;;;;;;;2.95;2.28;;;18.50;71.40;;;;;;6186642;23;20035;-69
2021/11/16 02:58:03;;;;;;;2.45;2.20;;;18.50;71.40;;;;;;6186845;23;20001;-70
2021/11/16 03:00:29;;;;;;;2.63;2.42;;;18.50;71.40;;;;;;6213283;23;20007;-69
2021/11/16 03:02:55;;;;;;;2.50;2.30;;;18.50;71.40;;;;;;6186936;23;19997;-69
2021/11/16 03:05:21;;;;;;;3.55;1.98;;;18.50;71.40;;;;;;6162354;23;20018;-70
2021/11/16 03:07:49;;;;;;;2.13;1.92;;;18.50;71.40;;;;;;6186391;23;20043;-70
2021/11/16 03:10:15;;;;;;;2.85;2.20;;;18.50;71.40;;;;;;6187191;23;20007;-70
2021/11/16 03:12:41;;;;;;;2.40;2.20;;;18.50;71.40;;;;;;6213163;23;20001;-69
2021/11/16 03:15:08;;;;;;;2.97;2.10;;;18.40;71.40;;;;;;6186839;23;20008;-70
2021/11/16 03:17:33;;;;;;;2.45;2.25;;;18.50;71.50;;;;;;6188012;23;20008;-70
2021/11/16 03:19:59;;;;;;;2.75;1.77;;;18.50;71.40;;;;;;6187960;23;20458;-70
2021/11/16 03:22:31;;;;;;;2.85;2.60;;;18.50;71.40;;;;;;6187654;23;19997;-69
2021/11/16 03:24:58;;;;;;;;;;;18.50;71.40;;;;;;6124844;23;1511366;-70
2021/11/16 03:27:30;;;;;;;2.08;1.80;;;18.40;71.50;;;;;;6216584;23;19908;-69
2021/11/16 03:29:58;;;;;;;2.38;2.00;;;18.40;72.70;;;;;;6191237;23;20054;-69
2021/11/16 03:32:30;;;;;;;2.28;2.08;;;18.40;71.60;;;;;;6216367;23;20072;-69
2021/11/16 03:34:55;;;;;;;3.47;2.15;;;18.40;71.60;;;;;;6191103;23;20028;-69
2021/11/16 03:37:24;;;;;;;3.00;2.17;;;18.40;71.60;;;;;;6189489;23;19996;-69
2021/11/16 03:39:50;;;;;;;2.40;2.10;;;18.40;71.50;;;;;;6190400;23;20054;-69
2021/11/16 03:42:15;;;;;;;2.30;2.00;;;18.40;71.60;;;;;;6190151;23;20028;-69
2021/11/16 03:44:41;;;;;;;2.28;2.08;;;18.40;71.50;;;;;;6216225;23;19996;-69
2021/11/16 03:47:06;;;;;;;2.25;2.05;;;18.40;71.50;;;;;;6216158;23;20051;-69
2021/11/16 03:49:32;;;;;;;3.80;2.20;;;18.40;71.50;;;;;;6216160;23;20008;-69
2021/11/16 03:51:58;;;;;;;2.10;1.90;;;18.40;71.50;;;;;;6189330;23;20344;-70
2021/11/16 03:54:24;;;;;;;2.35;2.15;;;18.40;71.50;;;;;;6164950;23;20070;-70
2021/11/16 03:56:50;;;;;;;2.78;2.20;;;18.40;71.50;;;;;;6189588;23;20103;-69
2021/11/16 03:59:16;;;;;;;2.00;1.75;;;18.40;71.50;;;;;;6189813;23;20001;-70
2021/11/16 04:01:41;;;;;;;2.63;2.30;;;18.40;71.50;;;;;;6189668;23;20034;-69
2021/11/16 04:04:08;;;;;;;2.88;2.20;;;18.40;71.50;;;;;;6164754;23;20103;-69
2021/11/16 04:06:34;;;;;;;2.05;1.95;;;18.40;71.50;;;;;;6189504;23;20058;-69
2021/11/16 04:09:01;;;;;;;2.25;2.05;;;18.40;71.50;;;;;;6215851;23;20391;-69
2021/11/16 04:11:27;;;;;;;2.50;2.30;;;18.40;71.50;;;;;;6216071;23;20032;-69
2021/11/16 04:13:53;;;;;;;1.90;1.80;;;18.40;71.50;;;;;;6189322;23;20012;-70
2021/11/16 04:16:21;;;;;;;2.55;2.05;;;18.40;71.60;;;;;;6215722;23;20001;-70
2021/11/16 04:18:47;;;;;;;2.30;2.10;;;18.40;71.60;;;;;;6189719;23;20001;-70
2021/11/16 04:21:12;;;;;;;1.98;1.83;;;18.40;71.60;;;;;;6215567;23;20389;-70
2021/11/16 04:23:38;;;;;;;2.15;1.95;;;18.40;71.60;;;;;;6189271;23;20001;-69
2021/11/16 04:26:04;;;;;;;1.90;1.80;;;18.40;71.60;;;;;;6215335;23;20069;-69
2021/11/16 04:28:29;;;;;;;4.82;1.85;;;18.40;71.60;;;;;;6189332;23;20072;-69
2021/11/16 04:30:59;;;;;;;3.45;1.98;;;18.40;71.60;;;;;;6187850;23;19996;-69
2021/11/16 04:33:25;;;;;;;2.13;1.92;;;18.40;72.70;;;;;;6189341;23;20096;-69
2021/11/16 04:35:50;;;;;;;1.70;1.60;;;18.40;71.70;;;;;;6187875;23;20433;-69
2021/11/16 04:38:16;;;;;;;3.33;2.00;;;18.40;71.70;;;;;;6188413;23;20004;-70
2021/11/16 04:40:43;;;;;;;1.80;1.70;;;18.40;71.70;;;;;;6188580;23;20444;-70
2021/11/16 04:43:14;;;;;;;3.50;1.98;;;18.40;71.70;;;;;;6188464;23;20026;-70
2021/11/16 04:45:40;;;;;;;2.88;1.90;;;18.40;71.70;;;;;;6215096;23;19996;-70
2021/11/16 05:03:46;;;;;;;2.17;1.98;;;18.30;71.70;;;;;;6215139;23;20023;-69
2021/11/16 05:06:12;;;;;;;1.90;1.80;;;18.30;71.80;;;;;;6215402;23;20428;-70
2021/11/16 05:08:39;;;;;;;2.10;1.90;;;18.30;71.80;;;;;;6189270;23;19996;-70
2021/11/16 05:11:07;;;;;;;2.17;1.98;;;18.30;71.70;;;;;;6189244;23;20084;-69
2021/11/16 05:13:32;;;;;;;3.45;2.17;;;18.30;71.80;;;;;;6188883;23;20005;-70
2021/11/16 05:15:58;;;;;;;2.20;2.03;;;18.30;71.80;;;;;;6188926;23;20054;-69
2021/11/16 05:18:24;;;;;;;2.10;2.00;;;18.40;71.80;;;;;;6214959;23;20022;-69
2021/11/16 05:20:49;;;;;;;2.88;2.13;;;18.30;71.70;;;;;;6164299;23;19997;-69
2021/11/16 05:23:17;;;;;;;1.88;1.77;;;18.30;71.80;;;;;;6215306;23;20000;-69
2021/11/16 05:25:51;;;;;;;3.72;1.83;;;18.30;71.80;;;;;;6189137;23;20016;-69
2021/11/16 05:28:17;;;;;;;2.20;2.00;;;18.30;71.80;;;;;;6164585;23;20000;-69
2021/11/16 05:30:43;;;;;;;2.63;2.42;;;18.30;71.80;;;;;;6215330;23;20008;-69
2021/11/16 05:33:09;;;;;;;2.45;2.25;;;18.30;71.80;;;;;;6214756;23;20139;-69
2021/11/16 05:35:34;;;;;;;3.20;2.35;;;18.30;71.90;;;;;;6188641;23;20012;-69
2021/11/16 05:38:00;;;;;;;1.73;1.63;;;18.30;71.80;;;;;;6188175;23;20004;-69
2021/11/16 05:40:26;;;;;;;1.65;1.55;;;18.30;71.80;;;;;;6188805;23;20028;-69
2021/11/16 05:42:52;;;;;;;2.13;1.90;;;18.30;71.80;;;;;;6188881;23;19997;-69
2021/11/16 05:45:17;;;;;;;2.22;1.92;;;18.30;71.80;;;;;;6215035;23;20000;-70
2021/11/16 05:47:43;;;;;;;2.08;1.85;;;18.30;71.90;;;;;;6188233;23;20341;-69
2021/11/16 05:50:10;;;;;;;3.05;1.83;;;18.30;71.80;;;;;;6214987;23;20004;-70
2021/11/16 05:52:36;;;;;;;3.28;1.90;;;18.30;71.80;;;;;;6164162;23;20005;-70
2021/11/16 05:55:02;;;;;;;2.60;1.92;;;18.30;71.90;;;;;;6163810;23;20011;-70
2021/11/16 05:57:28;;;;;;;2.67;2.00;;;18.30;71.80;;;;;;6188372;23;20403;-70
2021/11/16 05:59:53;;;;;;;2.63;1.77;;;18.30;71.80;;;;;;6215037;23;20041;-70
2021/11/16 06:02:19;;;;;;;2.28;1.98;;;18.30;71.80;;;;;;6187850;23;20112;-70
2021/11/16 06:04:45;;;;;;;2.55;1.80;;;18.30;71.80;;;;;;6215130;23;20135;-70
2021/11/16 06:07:12;;;;;;;2.90;2.03;;;18.30;71.90;;;;;;6214994;23;20011;-70
2021/11/16 06:09:38;;;;;;;2.35;2.15;;;18.30;72.10;;;;;;6188968;23;20036;-70
2021/11/16 06:12:04;;;;;;;2.88;2.15;;;18.30;71.90;;;;;;6214851;23;20000;-70
2021/11/16 06:14:30;;;;;;;2.53;1.77;;;18.20;71.90;;;;;;6214696;23;20007;-70
2021/11/16 06:16:56;;;;;;;1.95;1.77;;;18.30;72.00;;;;;;6187832;23;20083;-70
2021/11/16 06:19:24;;;;;;;2.90;1.70;;;18.30;72.00;;;;;;6188340;23;20031;-70
2021/11/16 06:21:49;;;;;;;1.80;1.70;;;18.30;71.90;;;;;;6188825;23;20007;-70
2021/11/16 06:24:15;;;;;;;1.70;1.60;;;18.20;71.90;;;;;;6214631;23;20004;-70
2021/11/16 06:26:41;;;;;;;2.00;1.60;;;18.30;72.00;;;;;;6214646;23;20020;-70
2021/11/16 06:29:06;;;;;;;2.17;1.98;;;18.20;71.90;;;;;;6163339;23;20011;-70
2021/11/16 06:31:33;;;;;;;2.00;1.90;;;18.20;71.90;;;;;;6187853;23;20005;-69
2021/11/16 06:33:59;;;;;;;1.88;1.77;;;18.20;71.90;;;;;;6186727;23;20448;-70
2021/11/16 06:36:33;;;;;;;2.03;1.90;;;18.20;71.90;;;;;;6186985;23;20087;-69
2021/11/16 06:39:00;;;;;;;1.90;1.70;;;18.20;71.90;;;;;;6188128;23;20000;-70
2021/11/16 06:41:25;;;;;;;2.25;2.05;;;18.20;72.00;;;;;;6187251;23;20107;-70
2021/11/16 06:43:51;;;;;;;1.90;1.70;;;18.20;72.20;;;;;;6213673;23;20028;-70
2021/11/16 06:46:17;;;;;;;1.77;1.65;;;18.20;72.00;;;;;;6213451;23;20004;-71
2021/11/16 06:48:42;;;;;;;1.55;1.45;;;18.20;72.00;;;;;;6213720;23;20384;-71
2021/11/16 06:51:08;;;;;;;1.85;1.67;;;18.20;72.00;;;;;;6213659;23;20021;-71
2021/11/16 06:53:34;;;;;;;1.75;1.63;;;18.20;71.90;;;;;;6187237;23;20012;-70
2021/11/16 06:56:00;;;;;;;1.73;1.63;;;18.20;71.90;;;;;;6213631;23;20031;-71
2021/11/16 06:58:26;;;;;;;3.50;2.20;;;18.20;71.90;;;;;;6187095;23;20059;-71
2021/11/16 07:00:52;;;;;;;3.47;2.00;;;18.20;71.80;;;;;;6213206;23;20005;-71
2021/11/16 07:03:22;;;;;;;2.15;1.95;;;18.20;71.80;;;;;;6212624;23;20050;-71
2021/11/16 07:05:48;;;;;;;2.20;2.00;;;18.20;71.80;;;;;;6162175;23;19996;-71
2021/11/16 07:08:26;;;;;;;1.60;1.50;;;18.20;71.70;;;;;;6186513;23;20008;-71
2021/11/16 07:10:59;;;;;;;1.77;1.67;;;18.20;71.70;;;;;;6139975;23;20431;-71
2021/11/16 07:13:25;;;;;;;1.70;1.60;;;18.30;71.80;;;;;;6163674;23;20005;-71
2021/11/16 07:15:51;;;;;;;2.30;1.92;;;18.20;71.70;;;;;;6213431;23;20028;-71
2021/11/16 07:18:16;;;;;;;1.77;1.58;;;18.20;71.60;;;;;;6212918;23;20332;-71
2021/11/16 07:20:43;;;;;;;1.80;1.70;;;18.20;71.60;;;;;;6162018;23;20011;-71
2021/11/16 07:23:10;;;;;;;1.98;1.70;;;18.30;71.70;;;;;;6186793;23;20444;-71
2021/11/16 07:25:38;;;;;;;2.85;2.08;;;18.30;71.70;;;;;;6213026;23;20388;-71
2021/11/16 07:28:03;;;;;;;1.65;1.55;;;18.30;71.60;;;;;;6213501;23;20008;-71
2021/11/16 07:30:32;;;;;;;2.35;1.90;;;18.30;71.60;;;;;;6186414;23;20395;-68
2021/11/16 07:33:02;;;;;;;6.30;2.83;;;18.30;71.50;;;;;;6187580;23;20005;-68
2021/11/16 07:35:30;;;;;;;5.22;2.35;;;18.30;71.70;;;;;;6186188;23;20004;-68
2021/11/16 07:38:00;;;;;;;9.48;3.10;;;18.30;71.60;;;;;;6213866;23;20008;-68
2021/11/16 07:40:26;;;;;;;8.20;3.13;;;18.30;71.60;;;;;;6214180;23;20000;-67
2021/11/16 07:43:03;;;;;;;5.53;2.40;;;18.30;71.50;;;;;;6163514;23;20320;-68
2021/11/16 07:45:30;;;;;;;6.13;2.40;;;18.40;71.50;;;;;;6214365;23;20007;-68
2021/11/16 07:48:03;;;;;;;7.05;2.90;;;18.30;71.40;;;;;;6163440;23;20332;-68
2021/11/16 07:50:32;;;;;;;7.00;2.58;;;18.40;71.50;;;;;;6187848;23;20000;-68
2021/11/16 07:53:15;;;;;;;5.47;2.53;;;18.40;71.40;;;;;;6214325;23;20005;-68
2021/11/16 07:55:43;;;;;;;5.88;2.47;;;18.40;71.20;;;;;;6188278;23;20004;-68
2021/11/16 07:58:10;;;;;;;6.22;2.85;;;18.40;71.40;;;;;;6162782;23;20011;-68
2021/11/16 08:00:38;;;;;;;6.53;2.60;;;18.30;71.30;;;;;;6187966;23;20107;-68
2021/11/16 08:03:16;;;;;;;12.30;3.13;;;18.40;71.30;;;;;;6216073;23;20051;-68
2021/11/16 08:13:53;;;;;;;5.50;2.75;;;18.40;71.20;;;;;;6216174;23;20009;-68
2021/11/16 08:16:18;;;;;;;5.45;2.72;;;18.30;72.20;;;;;;6215894;23;20004;-68
2021/11/16 08:18:46;;;;;;;6.40;2.72;;;18.40;71.20;;;;;;6189611;23;20032;-68
2021/11/16 08:21:13;;;;;;;6.25;2.55;;;18.40;71.20;;;;;;6189905;23;20001;-68
2021/11/16 08:23:50;;;;;;;5.20;2.55;;;18.30;71.10;;;;;;6215911;23;20024;-68
2021/11/16 08:26:16;;;;;;;5.57;2.40;;;18.40;71.10;;;;;;6164837;23;20009;-68
2021/11/16 08:28:43;;;;;;;3.90;2.17;;;18.40;71.10;;;;;;6189057;23;19996;-68
2021/11/16 08:31:10;;;;;;;6.70;2.80;;;18.40;71.00;;;;;;6164948;23;20029;-68
2021/11/16 08:33:36;;;;;;;2.30;2.10;;;18.40;71.00;;;;;;6189396;23;20005;-68
2021/11/16 08:36:01;;;;;;;4.95;2.15;;;18.40;71.00;;;;;;6189431;23;20507;-68
2021/11/16 08:38:33;;;;;;;4.45;2.30;;;18.40;71.00;;;;;;6215504;23;20051;-68
2021/11/16 08:40:58;;;;;;;4.32;2.55;;;18.40;71.00;;;;;;6189350;23;20119;-68
2021/11/16 08:43:35;;;;;;;3.47;2.00;;;18.40;70.90;;;;;;6215714;23;20016;-68
2021/11/16 08:46:03;;;;;;;5.07;2.47;;;18.40;70.90;;;;;;6215915;23;20371;-68
2021/11/16 08:48:29;;;;;;;4.88;2.47;;;18.40;70.90;;;;;;6189688;23;20005;-68
2021/11/16 08:51:06;;;;;;;5.68;2.47;;;18.40;70.90;;;;;;6189792;23;20001;-68
2021/11/16 08:53:34;;;;;;;4.28;2.42;;;18.50;70.80;;;;;;6165882;23;20028;-68
2021/11/16 08:56:04;;;;;;;5.63;2.30;;;18.40;70.80;;;;;;6215452;23;20011;-68
2021/11/16 08:58:30;;;;;;;2.65;2.00;;;18.40;70.80;;;;;;6189026;23;20005;-68
2021/11/16 09:00:57;;;;;;;6.15;2.22;;;18.50;70.90;;;;;;6189070;23;20008;-68
2021/11/16 09:03:29;;;;;;;4.30;2.20;;;18.40;70.70;;;;;;6189351;23;20001;-68
2021/11/16 09:05:56;;;;;;;3.67;2.03;;;18.50;71.80;;;;;;6165777;23;20004;-68
2021/11/16 09:08:32;;;;;;;3.65;1.80;;;18.50;70.80;;;;;;6215409;23;20054;-68
2021/11/16 09:11:00;;;;;;;5.55;2.50;;;18.40;70.70;;;;;;6188861;23;20490;-68
2021/11/16 09:13:30;;;;;;;2.17;1.88;;;18.40;70.70;;;;;;6188783;23;20454;-68
2021/11/16 09:15:59;;;;;;;4.53;2.40;;;18.50;70.70;;;;;;6189065;23;20038;-68
2021/11/16 09:18:50;;;;;;;5.40;2.20;;;18.50;70.70;;;;;;6188652;23;20499;-68
2021/11/16 09:21:18;;;;;;;3.65;1.88;;;18.50;70.50;;;;;;6175249;23;20447;-68
2021/11/16 09:23:47;;;;;;;1.88;1.70;;;18.40;70.70;;;;;;6215360;23;20079;-68
2021/11/16 09:26:19;;;;;;;3.78;2.17;;;18.50;70.80;;;;;;6164649;23;20529;-68
2021/11/16 09:29:04;;;;;;;3.55;2.20;;;18.50;70.70;;;;;;6215345;23;20454;-68
2021/11/16 09:31:36;;;;;;;5.68;2.00;;;18.40;70.70;;;;;;6215167;23;20007;-68
2021/11/16 09:34:16;;;;;;;2.60;1.88;;;18.50;70.70;;;;;;6215482;23;20007;-68
2021/11/16 09:37:01;;;;;;;2.67;1.88;;;18.40;70.60;;;;;;6215241;23;20038;-68
2021/11/16 09:39:31;;;;;;;2.10;1.75;;;18.40;70.60;;;;;;6188354;23;20015;-68
2021/11/16 09:42:08;;;;;;;2.63;2.00;;;18.40;70.70;;;;;;6164923;23;20000;-68
2021/11/16 09:44:43;;;;;;;5.43;2.15;;;18.50;70.60;;;;;;6188689;23;20081;-68
2021/11/16 09:47:27;;;;;;;3.15;1.67;;;18.40;70.50;;;;;;6188967;23;20008;-68
2021/11/16 09:49:58;;;;;;;2.55;1.83;;;18.50;70.40;;;;;;6188727;23;20399;-68
2021/11/16 09:52:42;;;;;;;3.72;1.83;;;18.50;70.60;;;;;;6188523;23;20032;-68
2021/11/16 09:55:21;;;;;;;2.97;1.73;;;18.50;70.50;;;;;;6214713;23;20000;-68
2021/11/16 09:57:51;;;;;;;2.72;1.60;;;18.50;70.50;;;;;;6188472;23;20499;-68
2021/11/16 10:00:20;;;;;;;2.20;1.70;;;18.50;70.60;;;;;;6189237;23;20031;-68
2021/11/16 10:03:13;;;;;;;3.05;1.63;;;18.40;70.50;;;;;;6215009;23;20001;-68
2021/11/16 10:05:42;;;;;;;3.60;1.35;;;18.50;70.50;;;;;;6215026;23;20067;-68
2021/11/16 10:08:09;;;;;;;2.95;1.60;;;18.40;70.50;;;;;;6214553;23;20001;-68
2021/11/16 10:10:36;;;;;;;1.83;1.67;;;18.50;70.50;;;;;;6188635;23;20005;-68
2021/11/16 10:13:07;;;;;;;4.50;1.73;;;18.50;70.50;;;;;;6214926;23;20009;-68
2021/11/16 10:15:33;;;;;;;2.85;1.50;;;18.50;70.50;;;;;;6214803;23;20076;-68
2021/11/16 10:17:59;;;;;;;1.80;1.70;;;18.50;70.40;;;;;;6214955;23;20033;-68
2021/11/16 10:20:27;;;;;;;1.95;1.48;;;18.50;71.50;;;;;;6188275;23;20508;-68
2021/11/16 10:22:54;;;;;;;3.15;1.38;;;18.50;70.40;;;;;;6214283;23;20483;-68
2021/11/16 10:25:25;;;;;;;2.20;1.67;;;18.50;70.40;;;;;;6188078;23;20015;-68
2021/11/16 10:27:59;;;;;;;4.30;1.90;;;18.50;70.40;;;;;;6188604;23;20436;-68
2021/11/16 10:30:28;;;;;;;3.85;1.60;;;18.50;70.40;;;;;;6188475;23;20005;-68
2021/11/16 10:33:16;;;;;;;2.58;1.65;;;18.50;70.30;;;;;;6164250;23;20005;-68
2021/11/16 10:35:41;;;;;;;2.72;1.50;;;18.50;70.10;;;;;;6214503;23;20020;-68
2021/11/16 10:38:09;;;;;;;2.28;1.40;;;18.50;70.30;;;;;;6215010;23;20534;-68
2021/11/16 10:40:35;;;;;;;2.15;1.80;;;18.50;70.30;;;;;;6188523;23;20321;-68
2021/11/16 10:43:01;;;;;;;2.05;1.63;;;18.50;70.30;;;;;;6188354;23;20007;-68
2021/11/16 10:45:29;;;;;;;4.25;1.70;;;18.50;70.20;;;;;;6214781;23;20000;-68
2021/11/16 10:48:00;;;;;;;1.90;1.52;;;18.50;70.20;;;;;;6188352;23;20079;-68
2021/11/16 10:50:28;;;;;;;2.38;1.50;;;18.50;70.20;;;;;;6163475;23;20011;-68
2021/11/16 10:53:13;;;;;;;2.47;1.63;;;18.50;70.20;;;;;;6188506;23;20440;-68
2021/11/16 10:55:50;;;;;;;2.60;1.80;;;18.50;70.20;;;;;;6188070;23;20470;-68
2021/11/16 10:58:20;;;;;;;2.88;1.77;;;18.50;70.10;;;;;;6188032;23;20142;-68
2021/11/16 11:00:48;;;;;;;1.38;1.27;;;18.50;70.20;;;;;;6164594;23;20001;-68
2021/11/16 11:03:20;;;;;;;1.80;1.23;;;18.50;70.10;;;;;;6214741;23;20044;-68
2021/11/16 11:06:07;;;;;;;1.53;1.43;;;18.50;70.20;;;;;;6164530;23;20000;-68
2021/11/16 11:08:33;;;;;;;2.97;1.38;;;18.50;70.00;;;;;;6188315;23;20709;-68
2021/11/16 11:11:00;;;;;;;2.17;1.55;;;18.50;70.20;;;;;;6188085;23;20054;-68
2021/11/16 11:13:29;;;;;;;1.85;1.40;;;18.50;70.10;;;;;;6188440;23;20070;-68
2021/11/16 11:15:55;;;;;;;1.88;1.75;;;18.50;70.20;;;;;;6214585;23;20036;-68
2021/11/16 11:18:37;;;;;;;1.63;1.40;;;18.50;70.10;;;;;;6214427;23;20076;-68
2021/11/16 11:21:06;;;;;;;1.90;1.40;;;18.50;70.10;;;;;;6187848;23;20071;-68
2021/11/16 11:23:44;;;;;;;3.22;1.42;;;18.50;70.10;;;;;;6187945;23;20000;-68
2021/11/16 11:26:35;;;;;;;1.73;1.40;;;18.50;70.10;;;;;;6189870;23;20013;-68
2021/11/16 11:29:20;;;;;;;2.05;1.58;;;18.60;70.00;;;;;;6165747;23;19997;-68
2021/11/16 11:31:49;;;;;;;2.05;1.23;;;18.50;70.10;;;;;;6214338;23;20127;-68
2021/11/16 11:34:15;;;;;;;1.58;1.48;;;18.50;70.10;;;;;;6214376;23;20428;-68
2021/11/16 11:36:41;;;;;;;2.50;1.58;;;18.50;70.00;;;;;;6214797;23;20007;-68
2021/11/16 11:39:22;;;;;;;2.22;1.58;;;18.50;70.10;;;;;;6216415;23;20004;-68
2021/11/16 11:41:56;;;;;;;2.53;1.35;;;18.50;70.00;;;;;;6190094;23;20001;-68
2021/11/16 11:44:22;;;;;;;1.50;1.38;;;18.50;70.00;;;;;;6166327;23;20432;-68
2021/11/16 11:46:55;;;;;;;1.20;1.10;;;18.50;70.00;;;;;;6189918;23;20436;-68
2021/11/16 11:49:21;;;;;;;2.88;1.30;;;18.50;70.00;;;;;;6166085;23;20008;-68
2021/11/16 11:51:46;;;;;;;1.90;1.45;;;18.50;69.90;;;;;;6215799;23;20005;-68
2021/11/16 11:54:13;;;;;;;5.00;1.52;;;18.50;69.90;;;;;;6216314;23;20005;-68
2021/11/16 11:56:39;;;;;;;2.63;1.50;;;18.50;69.90;;;;;;6164938;23;20555;-68
2021/11/16 11:59:05;;;;;;;1.23;1.13;;;18.50;69.90;;;;;;6189751;23;20000;-68
2021/11/16 12:01:30;;;;;;;2.28;1.30;;;18.50;69.90;;;;;;6216330;23;20029;-68
2021/11/16 12:03:56;;;;;;;1.63;1.33;;;18.50;69.80;;;;;;6215703;23;19996;-68
2021/11/16 12:06:26;;;;;;;1.60;1.10;;;18.50;69.80;;;;;;6189701;23;20008;-68
2021/11/16 12:08:52;;;;;;;2.15;1.35;;;18.60;69.90;;;;;;6189639;23;20001;-68
2021/11/16 12:11:19;;;;;;;1.58;1.10;;;18.50;69.80;;;;;;6216271;23;20082;-68
2021/11/16 12:13:45;;;;;;;1.30;1.10;;;18.50;69.80;;;;;;6189658;23;20004;-68
2021/11/16 12:16:44;;;;;;;1.70;1.60;;;18.60;69.80;;;;;;6216121;23;20023;-68
2021/11/16 12:19:11;;;;;;;1.35;1.25;;;18.60;69.80;;;;;;6189848;23;20076;-68
2021/11/16 12:21:43;;;;;;;2.10;1.02;;;18.50;69.80;;;;;;6189670;23;19997;-68
2021/11/16 12:24:29;;;;;;;1.33;1.23;;;18.60;69.90;;;;;;6189505;23;20007;-68
2021/11/16 12:27:07;;;;;;;1.70;1.38;;;18.60;69.80;;;;;;6192162;23;20059;-68
2021/11/16 12:29:45;;;;;;;1.17;1.08;;;18.60;69.70;;;;;;6215928;23;20028;-68
2021/11/16 12:32:26;;;;;;;1.48;1.38;;;18.60;69.80;;;;;;6189853;23;20074;-68
2021/11/16 12:35:05;;;;;;;1.63;1.27;;;18.60;69.80;;;;;;6188899;23;20005;-68
2021/11/16 12:37:38;;;;;;;1.50;1.10;;;18.60;69.80;;;;;;6189943;23;20004;-68
2021/11/16 12:40:22;;;;;;;1.73;1.23;;;18.60;69.80;;;;;;6189234;23;20062;-68
2021/11/16 12:43:06;;;;;;;1.20;1.10;;;18.60;69.70;;;;;;6215822;23;20432;-68
2021/11/16 12:45:40;;;;;;;1.75;1.23;;;18.60;69.70;;;;;;6215669;23;20344;-68
2021/11/16 12:48:06;;;;;;;0.85;0.85;;;18.60;69.70;;;;;;6188867;23;20431;-68
2021/11/16 12:50:32;;;;;;;1.05;1.00;;;18.60;69.80;;;;;;6189493;23;20000;-68
2021/11/16 12:52:58;;;;;;;1.73;1.20;;;18.60;69.70;;;;;;6215518;23;20000;-68
2021/11/16 12:55:26;;;;;;;1.08;1.00;;;18.60;69.70;;;;;;6215794;23;20071;-68
2021/11/16 12:57:57;;;;;;;0.98;0.85;;;18.60;69.70;;;;;;6189584;23;20056;-68
2021/11/16 13:00:37;;;;;;;1.30;1.20;;;18.60;69.60;;;;;;6189543;23;20000;-68
2021/11/16 13:03:03;;;;;;;1.90;1.30;;;18.70;69.70;;;;;;6164674;23;19996;-68
2021/11/16 13:05:43;;;;;;;1.10;0.95;;;18.60;69.70;;;;;;6189354;23;20055;-68
2021/11/16 13:08:11;;;;;;;0.90;0.90;;;18.70;69.60;;;;;;6189945;23;20004;-68
2021/11/16 13:10:51;;;;;;;1.10;1.00;;;18.70;69.70;;;;;;6164549;23;20054;-68
2021/11/16 13:13:22;;;;;;;1.30;0.98;;;18.70;69.70;;;;;;6165313;23;20008;-68
2021/11/16 13:15:54;;;;;;;1.38;1.05;;;18.70;69.70;;;;;;6215301;23;20004;-68
2021/11/16 13:18:20;;;;;;;1.02;0.93;;;18.70;69.70;;;;;;6214982;23;20005;-68
2021/11/16 13:20:49;;;;;;;2.45;1.20;;;18.60;69.60;;;;;;6215363;23;20432;-68